createdAt,value
2023-03-06T00:01:10.125Z,15.49
2023-03-06T00:03:37.636Z,15.49
2023-03-06T00:06:04.134Z,15.42
2023-03-06T00:08:30.612Z,15.49
2023-03-06T00:10:57.007Z,15.48
2023-03-06T00:13:23.472Z,15.44
2023-03-06T00:15:50.135Z,15.45
2023-03-06T00:18:16.941Z,15.42
2023-03-06T00:20:43.261Z,15.37
2023-03-06T00:23:09.754Z,15.41
2023-03-06T00:25:36.064Z,15.36
2023-03-06T00:28:02.457Z,15.37
2023-03-06T00:30:28.965Z,15.35
2023-03-06T00:32:55.379Z,15.31
2023-03-06T00:35:21.726Z,15.33
2023-03-06T00:37:48.191Z,15.36
2023-03-06T00:40:14.665Z,15.37
2023-03-06T00:42:41.411Z,15.35
2023-03-06T00:45:07.847Z,15.32
2023-03-06T00:47:34.203Z,15.29
2023-03-06T00:50:00.672Z,15.31
2023-03-06T00:52:27.265Z,15.26
2023-03-06T00:54:53.777Z,15.26
2023-03-06T00:57:20.142Z,15.23
2023-03-06T00:59:46.514Z,15.24
2023-03-06T01:02:13.282Z,15.25
2023-03-06T01:04:39.777Z,15.24
2023-03-06T01:07:06.384Z,15.24
2023-03-06T01:09:32.787Z,15.21
2023-03-06T01:11:59.176Z,15.22
2023-03-06T01:14:25.508Z,15.19
2023-03-06T01:16:51.843Z,15.22
2023-03-06T01:19:18.482Z,15.20
2023-03-06T01:21:44.926Z,15.18
2023-03-06T01:24:11.258Z,15.18
2023-03-06T01:26:37.657Z,15.20
2023-03-06T01:29:04.036Z,15.15
2023-03-06T01:31:30.621Z,15.17
2023-03-06T01:33:57.372Z,15.13
2023-03-06T01:36:23.695Z,15.12
2023-03-06T01:38:50.072Z,15.13
2023-03-06T01:41:16.460Z,15.11
2023-03-06T01:43:42.824Z,15.11
2023-03-06T01:46:09.216Z,15.09
2023-03-06T01:48:35.927Z,15.07
2023-03-06T01:51:02.270Z,15.08
2023-03-06T01:53:28.778Z,15.09
2023-03-06T01:55:55.185Z,15.05
2023-03-06T01:58:21.623Z,15.05
2023-03-06T02:00:48.136Z,15.03
2023-03-06T02:03:17.049Z,15.05
2023-03-06T02:05:43.790Z,15.05
2023-03-06T02:08:10.162Z,15.00
2023-03-06T02:10:36.506Z,15.01
2023-03-06T02:13:03.224Z,14.99
2023-03-06T02:15:29.948Z,15.00
2023-03-06T02:17:56.337Z,15.00
2023-03-06T02:20:22.699Z,14.97
2023-03-06T02:22:50.803Z,14.93
2023-03-06T02:25:17.249Z,14.95
2023-03-06T02:27:43.643Z,14.92
2023-03-06T02:30:09.995Z,14.96
2023-03-06T02:32:36.534Z,14.93
2023-03-06T02:35:02.864Z,14.96
2023-03-06T02:37:29.179Z,14.91
2023-03-06T02:39:55.801Z,14.88
2023-03-06T02:42:22.173Z,14.89
2023-03-06T02:44:48.831Z,14.88
2023-03-06T02:47:15.233Z,14.89
2023-03-06T02:49:41.664Z,14.87
2023-03-06T02:52:08.029Z,14.91
2023-03-06T02:54:34.469Z,14.85
2023-03-06T02:57:00.914Z,14.87
2023-03-06T02:59:27.421Z,14.83
2023-03-06T03:01:53.773Z,14.86
2023-03-06T03:04:20.109Z,14.84
2023-03-06T03:06:46.589Z,14.82
2023-03-06T03:09:12.921Z,14.83
2023-03-06T03:11:39.261Z,14.82
2023-03-06T03:14:05.678Z,14.80
2023-03-06T03:16:32.036Z,14.82
2023-03-06T03:18:58.713Z,14.79
2023-03-06T03:21:25.630Z,14.80
2023-03-06T03:23:52.005Z,14.77
2023-03-06T03:26:18.975Z,14.76
2023-03-06T03:28:45.575Z,14.76
2023-03-06T03:31:12.003Z,14.73
2023-03-06T03:33:38.314Z,14.74
2023-03-06T03:36:04.815Z,14.71
2023-03-06T03:38:31.320Z,14.74
2023-03-06T03:40:57.586Z,14.71
2023-03-06T03:43:24.129Z,14.72
2023-03-06T03:45:50.452Z,14.71
2023-03-06T03:48:16.926Z,14.73
2023-03-06T03:50:43.214Z,14.71
2023-03-06T03:53:09.967Z,14.70
2023-03-06T03:55:36.349Z,14.66
2023-03-06T03:58:03.210Z,14.68
2023-03-06T04:00:29.787Z,14.65
2023-03-06T04:02:56.190Z,14.63
2023-03-06T04:05:22.555Z,14.64
2023-03-06T04:07:49.435Z,14.66
2023-03-06T04:10:15.679Z,14.62
2023-03-06T04:12:42.138Z,14.64
2023-03-06T04:15:08.595Z,14.65
2023-03-06T04:17:34.962Z,14.65
2023-03-06T04:20:01.584Z,14.61
2023-03-06T04:22:27.954Z,14.61
2023-03-06T04:24:54.435Z,14.63
2023-03-06T04:27:20.867Z,14.62
2023-03-06T04:29:47.386Z,14.58
2023-03-06T04:32:13.997Z,14.58
2023-03-06T04:34:40.406Z,14.56
2023-03-06T04:37:06.982Z,14.54
2023-03-06T04:39:33.317Z,14.56
2023-03-06T04:41:59.794Z,14.56
2023-03-06T04:44:26.576Z,14.55
2023-03-06T04:46:53.362Z,14.54
2023-03-06T04:49:19.758Z,14.54
2023-03-06T04:51:46.113Z,14.53
2023-03-06T04:54:12.538Z,14.53
2023-03-06T04:56:39.343Z,14.52
2023-03-06T04:59:05.686Z,14.52
2023-03-06T05:01:32.101Z,14.47
2023-03-06T05:03:58.535Z,14.48
2023-03-06T05:06:25.086Z,14.48
2023-03-06T05:08:51.374Z,14.49
2023-03-06T05:11:18.079Z,14.50
2023-03-06T05:13:44.555Z,14.46
2023-03-06T05:16:10.938Z,14.46
2023-03-06T05:18:37.418Z,14.44
2023-03-06T05:21:03.815Z,14.43
2023-03-06T05:23:30.346Z,14.43
2023-03-06T05:25:56.649Z,14.44
2023-03-06T05:28:23.215Z,14.42
2023-03-06T05:30:49.648Z,14.42
2023-03-06T05:33:16.151Z,14.42
2023-03-06T05:35:43.062Z,14.40
2023-03-06T05:38:09.469Z,14.42
2023-03-06T05:40:35.807Z,14.41
2023-03-06T05:43:02.138Z,14.40
2023-03-06T05:45:28.426Z,14.39
2023-03-06T05:47:54.860Z,14.38
2023-03-06T05:50:21.299Z,14.36
2023-03-06T05:52:47.733Z,14.36
2023-03-06T05:55:14.137Z,14.35
2023-03-06T05:57:40.435Z,14.38
2023-03-06T06:00:06.908Z,14.33
2023-03-06T06:02:33.268Z,14.34
2023-03-06T06:04:59.778Z,14.32
2023-03-06T06:07:26.113Z,14.34
2023-03-06T06:09:52.493Z,14.32
2023-03-06T06:12:18.881Z,14.32
2023-03-06T06:14:45.590Z,14.31
2023-03-06T06:17:12.158Z,14.29
2023-03-06T06:19:38.508Z,14.29
2023-03-06T06:22:04.862Z,14.29
2023-03-06T06:24:31.299Z,14.25
2023-03-06T06:26:57.680Z,14.29
2023-03-06T06:29:24.279Z,14.27
2023-03-06T06:31:50.684Z,14.26
2023-03-06T06:34:17.150Z,14.22
2023-03-06T06:36:43.660Z,14.10
2023-03-06T06:39:10.007Z,14.10
2023-03-06T06:41:53.600Z,14.12
2023-03-06T06:44:22.842Z,14.11
2023-03-06T06:47:21.206Z,14.13
2023-03-06T06:49:35.545Z,14.15
2023-03-06T06:52:01.865Z,14.14
2023-03-06T06:54:28.252Z,14.12
2023-03-06T06:56:54.570Z,14.15
2023-03-06T06:59:21.215Z,14.16
2023-03-06T07:01:47.856Z,14.17
2023-03-06T07:04:14.295Z,14.17
2023-03-06T07:06:40.678Z,14.17
2023-03-06T07:09:07.296Z,14.15
2023-03-06T07:11:33.771Z,14.15
2023-03-06T07:14:00.238Z,14.14
2023-03-06T07:16:26.608Z,14.14
2023-03-06T07:18:53.050Z,14.12
2023-03-06T07:21:19.378Z,14.13
2023-03-06T07:23:45.699Z,14.15
2023-03-06T07:26:11.990Z,14.14
2023-03-06T07:28:51.616Z,14.14
2023-03-06T07:31:19.231Z,14.13
2023-03-06T07:33:45.648Z,14.14
2023-03-06T07:36:13.779Z,14.14
2023-03-06T07:38:40.406Z,14.12
2023-03-06T07:41:06.750Z,14.14
2023-03-06T07:43:33.756Z,14.10
2023-03-06T07:46:00.181Z,14.08
2023-03-06T07:48:26.844Z,14.09
2023-03-06T07:50:53.186Z,14.09
2023-03-06T07:53:19.616Z,14.11
2023-03-06T07:55:46.088Z,14.09
2023-03-06T07:58:12.591Z,14.07
2023-03-06T08:00:39.377Z,14.07
2023-03-06T08:03:06.222Z,14.07
2023-03-06T08:05:32.582Z,14.02
2023-03-06T08:07:59.103Z,14.07
2023-03-06T08:10:25.902Z,14.08
2023-03-06T08:12:52.316Z,14.05
2023-03-06T08:15:18.683Z,14.04
2023-03-06T08:17:45.213Z,13.99
2023-03-06T08:20:11.511Z,14.01
2023-03-06T08:22:37.943Z,14.00
2023-03-06T08:25:04.498Z,14.01
2023-03-06T08:27:30.893Z,14.02
2023-03-06T08:29:57.443Z,14.04
2023-03-06T08:32:23.839Z,14.03
2023-03-06T08:34:50.254Z,13.99
2023-03-06T08:37:16.940Z,14.00
2023-03-06T08:39:43.863Z,14.02
2023-03-06T08:42:10.509Z,13.99
2023-03-06T08:44:36.993Z,14.00
2023-03-06T08:47:03.311Z,13.96
2023-03-06T08:49:29.682Z,13.98
2023-03-06T08:51:56.124Z,13.94
2023-03-06T08:54:22.625Z,13.94
2023-03-06T08:56:48.958Z,13.96
2023-03-06T08:59:15.475Z,13.94
2023-03-06T09:01:42.045Z,13.94
2023-03-06T09:04:08.571Z,13.94
2023-03-06T09:06:34.987Z,13.92
2023-03-06T09:09:01.346Z,13.92
2023-03-06T09:11:27.941Z,13.93
2023-03-06T09:13:54.411Z,13.93
2023-03-06T09:16:20.974Z,13.92
2023-03-06T09:18:47.280Z,14.10
2023-03-06T09:21:13.615Z,13.90
2023-03-06T09:23:40.029Z,13.94
2023-03-06T09:26:06.806Z,13.94
2023-03-06T09:28:33.472Z,13.98
2023-03-06T09:30:59.924Z,13.95
2023-03-06T09:33:26.500Z,13.75
2023-03-06T09:35:53.503Z,13.84
2023-03-06T09:38:19.929Z,13.78
2023-03-06T09:40:46.240Z,13.79
2023-03-06T09:43:13.176Z,13.79
2023-03-06T09:45:39.914Z,13.73
2023-03-06T09:48:06.467Z,13.73
2023-03-06T09:50:32.946Z,13.72
2023-03-06T09:52:59.303Z,13.74
2023-03-06T09:55:25.690Z,13.82
2023-03-06T09:57:52.379Z,13.79
2023-03-06T10:00:19.179Z,13.71
2023-03-06T10:02:45.586Z,13.74
2023-03-06T10:05:11.980Z,13.80
2023-03-06T10:07:38.955Z,13.79
2023-03-06T10:10:05.314Z,13.71
2023-03-06T10:12:31.722Z,13.80
2023-03-06T10:14:58.289Z,13.78
2023-03-06T10:17:24.568Z,13.76
2023-03-06T10:19:51.068Z,13.68
2023-03-06T10:22:17.670Z,13.74
2023-03-06T10:24:44.050Z,13.73
2023-03-06T10:27:10.477Z,13.72
2023-03-06T10:29:38.539Z,13.73
2023-03-06T10:32:05.533Z,13.72
2023-03-06T10:34:31.925Z,13.74
2023-03-06T10:36:58.275Z,13.74
2023-03-06T10:39:24.717Z,13.73
2023-03-06T10:41:51.226Z,13.81
2023-03-06T10:44:17.624Z,13.74
2023-03-06T10:46:44.274Z,13.72
2023-03-06T10:49:11.050Z,13.77
2023-03-06T10:51:37.372Z,13.76
2023-03-06T10:54:03.779Z,13.70
2023-03-06T10:56:30.151Z,13.78
2023-03-06T10:58:56.495Z,13.71
2023-03-06T11:01:23.233Z,13.71
2023-03-06T11:03:49.756Z,13.74
2023-03-06T11:06:16.105Z,13.74
2023-03-06T11:08:43.002Z,13.79
2023-03-06T11:11:09.733Z,13.89
2023-03-06T11:13:36.537Z,13.79
2023-03-06T11:16:02.871Z,13.84
2023-03-06T11:18:29.250Z,13.90
2023-03-06T11:20:55.864Z,13.92
2023-03-06T11:23:22.368Z,13.90
2023-03-06T11:25:48.897Z,13.87
2023-03-06T11:28:15.467Z,13.88
2023-03-06T11:30:41.889Z,13.83
2023-03-06T11:33:08.282Z,13.83
2023-03-06T11:35:34.631Z,13.84
2023-03-06T11:38:01.068Z,13.78
2023-03-06T11:40:27.436Z,13.78
2023-03-06T11:42:53.798Z,13.80
2023-03-06T11:45:20.169Z,13.78
2023-03-06T11:47:46.745Z,13.74
2023-03-06T11:50:13.276Z,13.75
2023-03-06T11:52:39.738Z,13.76
2023-03-06T11:55:06.143Z,13.72
2023-03-06T11:57:32.748Z,13.70
2023-03-06T11:59:59.180Z,13.76
2023-03-06T12:02:25.574Z,13.78
2023-03-06T12:04:52.062Z,13.76
2023-03-06T12:07:18.362Z,13.76
2023-03-06T12:09:45.015Z,13.75
2023-03-06T12:12:11.423Z,13.75
2023-03-06T12:14:37.814Z,13.74
2023-03-06T12:17:04.274Z,13.71
2023-03-06T12:19:30.750Z,13.67
2023-03-06T12:21:57.605Z,13.62
2023-03-06T12:24:24.026Z,13.62
2023-03-06T12:26:50.694Z,13.61
2023-03-06T12:29:17.434Z,13.63
2023-03-06T12:31:44.218Z,13.67
2023-03-06T12:34:11.452Z,13.76
2023-03-06T12:36:38.534Z,13.80
2023-03-06T12:39:06.256Z,13.88
2023-03-06T12:41:32.822Z,13.95
2023-03-06T12:43:59.456Z,14.02
2023-03-06T12:46:26.735Z,14.11
2023-03-06T12:48:53.905Z,14.20
2023-03-06T12:51:21.211Z,14.28
2023-03-06T12:53:47.931Z,14.36
2023-03-06T12:56:14.414Z,14.43
2023-03-06T12:58:41.703Z,14.51
2023-03-06T13:01:08.140Z,14.57
2023-03-06T13:03:34.719Z,14.65
2023-03-06T13:06:02.452Z,14.72
2023-03-06T13:08:29.296Z,14.77
2023-03-06T13:10:55.807Z,14.87
2023-03-06T13:13:22.698Z,14.93
2023-03-06T13:15:49.763Z,14.99
2023-03-06T13:18:16.167Z,15.05
2023-03-06T13:20:43.102Z,15.10
2023-03-06T13:23:10.396Z,15.16
2023-03-06T13:25:39.964Z,15.21
2023-03-06T13:28:07.299Z,15.25
2023-03-06T13:30:33.950Z,15.28
2023-03-06T13:33:00.765Z,15.27
2023-03-06T13:35:28.282Z,15.16
2023-03-06T13:37:54.965Z,15.07
2023-03-06T13:40:21.825Z,14.99
2023-03-06T13:42:48.684Z,14.93
2023-03-06T13:45:15.617Z,14.90
2023-03-06T13:48:09.671Z,14.85
2023-03-06T13:50:29.177Z,14.82
2023-03-06T13:52:57.346Z,14.80
2023-03-06T13:55:24.150Z,14.76
2023-03-06T13:57:51.335Z,14.74
2023-03-06T14:00:18.086Z,14.72
2023-03-06T14:02:45.242Z,14.70
2023-03-06T14:05:11.794Z,14.68
2023-03-06T14:07:38.718Z,14.65
2023-03-06T14:10:05.421Z,14.65
2023-03-06T14:12:32.742Z,14.64
2023-03-06T14:14:59.383Z,14.62
2023-03-06T14:17:25.777Z,14.61
2023-03-06T14:19:52.776Z,14.61
2023-03-06T14:22:19.296Z,14.58
2023-03-06T14:24:45.987Z,14.56
2023-03-06T14:27:12.290Z,14.55
2023-03-06T14:29:38.679Z,14.54
2023-03-06T14:32:05.067Z,14.51
2023-03-06T14:34:32.095Z,14.51
2023-03-06T14:36:58.438Z,14.49
2023-03-06T14:39:24.784Z,14.50
2023-03-06T14:41:51.599Z,14.50
2023-03-06T14:44:18.018Z,14.46
2023-03-06T14:46:45.081Z,14.46
2023-03-06T14:49:11.548Z,14.43
2023-03-06T14:51:37.948Z,14.44
2023-03-06T14:54:04.334Z,14.43
2023-03-06T14:56:31.071Z,14.39
2023-03-06T14:58:57.482Z,14.40
2023-03-06T15:01:23.935Z,14.40
2023-03-06T15:03:50.429Z,14.37
2023-03-06T15:06:17.621Z,14.36
2023-03-06T15:08:44.686Z,14.36
2023-03-06T15:11:11.073Z,14.36
2023-03-06T15:13:37.488Z,14.32
2023-03-06T15:16:04.596Z,14.33
2023-03-06T15:18:30.985Z,14.32
2023-03-06T15:20:57.305Z,14.32
2023-03-06T15:23:23.787Z,14.31
2023-03-06T15:25:50.632Z,14.29
2023-03-06T15:28:17.243Z,14.25
2023-03-06T15:30:43.654Z,14.32
2023-03-06T15:33:10.536Z,14.28
2023-03-06T15:35:38.189Z,14.25
2023-03-06T15:38:04.809Z,14.27
2023-03-06T15:40:31.446Z,14.25
2023-03-06T15:42:58.438Z,14.26
2023-03-06T15:45:24.954Z,14.25
2023-03-06T15:47:51.717Z,14.25
2023-03-06T15:50:18.127Z,14.23
2023-03-06T15:52:44.595Z,14.24
2023-03-06T15:55:11.094Z,14.20
2023-03-06T15:57:37.585Z,14.23
2023-03-06T16:00:04.097Z,14.24
2023-03-06T16:02:30.836Z,14.19
2023-03-06T16:04:57.710Z,14.21
2023-03-06T16:07:24.390Z,14.22
2023-03-06T16:09:50.965Z,14.24
2023-03-06T16:12:17.499Z,14.22
2023-03-06T16:14:43.931Z,14.23
2023-03-06T16:17:10.255Z,14.25
2023-03-06T16:19:36.597Z,14.23
2023-03-06T16:22:03.005Z,14.18
2023-03-06T16:24:29.835Z,14.22
2023-03-06T16:26:56.196Z,14.23
2023-03-06T16:29:23.057Z,14.21
2023-03-06T16:31:49.928Z,14.20
2023-03-06T16:34:16.717Z,14.17
2023-03-06T16:36:43.096Z,14.20
2023-03-06T16:39:09.562Z,14.17
2023-03-06T16:41:35.973Z,14.19
2023-03-06T16:44:02.352Z,14.19
2023-03-06T16:46:29.260Z,14.13
2023-03-06T16:48:55.908Z,14.16
2023-03-06T16:51:22.339Z,14.15
2023-03-06T16:53:48.780Z,14.14
2023-03-06T16:56:15.417Z,14.13
2023-03-06T16:58:41.884Z,14.13
2023-03-06T17:01:08.408Z,14.12
2023-03-06T17:03:34.781Z,14.10
2023-03-06T17:06:01.393Z,14.10
2023-03-06T17:08:27.802Z,14.06
2023-03-06T17:10:54.388Z,14.07
2023-03-06T17:13:20.884Z,14.05
2023-03-06T17:15:47.539Z,14.08
2023-03-06T17:18:13.951Z,14.06
2023-03-06T17:20:40.240Z,14.08
2023-03-06T17:23:07.109Z,14.06
2023-03-06T17:25:33.706Z,14.04
2023-03-06T17:28:00.061Z,14.04
2023-03-06T17:30:26.472Z,14.06
2023-03-06T17:32:53.186Z,14.04
2023-03-06T17:35:19.869Z,14.02
2023-03-06T17:37:46.303Z,13.99
2023-03-06T17:40:12.582Z,14.01
2023-03-06T17:42:39.035Z,13.98
2023-03-06T17:45:05.590Z,14.00
2023-03-06T17:47:31.992Z,13.99
2023-03-06T17:49:58.317Z,13.97
2023-03-06T17:52:24.832Z,13.96
2023-03-06T17:54:51.554Z,13.96
2023-03-06T17:57:18.009Z,13.96
2023-03-06T17:59:44.847Z,13.96
2023-03-06T18:02:11.246Z,13.94
2023-03-06T18:04:38.294Z,13.93
2023-03-06T18:07:04.633Z,13.93
2023-03-06T18:09:30.937Z,13.93
2023-03-06T18:11:57.448Z,13.94
2023-03-06T18:14:23.837Z,13.92
2023-03-06T18:16:50.189Z,13.91
2023-03-06T18:19:17.066Z,13.91
2023-03-06T18:21:43.417Z,13.90
2023-03-06T18:24:10.104Z,13.88
2023-03-06T18:26:36.763Z,13.87
2023-03-06T18:29:03.280Z,13.88
2023-03-06T18:31:30.473Z,13.88
2023-03-06T18:33:57.838Z,13.86
2023-03-06T18:36:24.262Z,13.87
2023-03-06T18:38:51.103Z,13.86
2023-03-06T18:41:17.738Z,13.87
2023-03-06T18:43:44.740Z,13.85
2023-03-06T18:46:11.148Z,13.82
2023-03-06T18:48:37.919Z,13.84
2023-03-06T18:51:04.302Z,13.82
2023-03-06T18:53:30.759Z,13.84
2023-03-06T18:55:57.048Z,13.83
2023-03-06T18:58:23.587Z,13.81
2023-03-06T19:00:49.964Z,13.81
2023-03-06T19:03:16.483Z,13.79
2023-03-06T19:05:42.965Z,13.79
2023-03-06T19:08:09.643Z,13.79
2023-03-06T19:10:36.010Z,13.78
2023-03-06T19:13:02.790Z,13.75
2023-03-06T19:15:29.164Z,13.79
2023-03-06T19:17:55.763Z,13.76
2023-03-06T19:20:22.127Z,13.74
2023-03-06T19:22:48.788Z,13.75
2023-03-06T19:25:15.502Z,13.71
2023-03-06T19:27:42.094Z,13.73
2023-03-06T19:30:09.541Z,13.73
2023-03-06T19:32:36.065Z,13.71
2023-03-06T19:35:02.734Z,13.70
2023-03-06T19:37:29.124Z,13.71
2023-03-06T19:39:55.772Z,13.70
2023-03-06T19:42:22.347Z,13.71
2023-03-06T19:44:49.089Z,13.70
2023-03-06T19:47:15.394Z,13.67
2023-03-06T19:49:41.856Z,13.68
2023-03-06T19:52:08.745Z,13.67
2023-03-06T19:54:35.333Z,13.68
2023-03-06T19:57:02.097Z,13.67
2023-03-06T19:59:28.842Z,13.67
2023-03-06T20:01:55.265Z,13.65
2023-03-06T20:04:21.580Z,13.66
2023-03-06T20:06:48.178Z,13.66
2023-03-06T20:09:15.121Z,13.66
2023-03-06T20:11:41.535Z,13.65
2023-03-06T20:14:08.194Z,13.62
2023-03-06T20:16:34.703Z,13.63
2023-03-06T20:19:01.184Z,13.58
2023-03-06T20:21:27.691Z,13.61
2023-03-06T20:23:54.382Z,13.60
2023-03-06T20:26:20.717Z,13.61
2023-03-06T20:28:47.523Z,13.57
2023-03-06T20:31:13.878Z,13.55
2023-03-06T20:33:40.243Z,13.52
2023-03-06T20:36:07.401Z,13.64
2023-03-06T20:38:34.028Z,13.61
2023-03-06T20:41:00.726Z,13.59
2023-03-06T20:43:27.712Z,13.58
2023-03-06T20:45:54.378Z,13.58
2023-03-06T20:48:20.798Z,13.57
2023-03-06T20:50:47.110Z,13.57
2023-03-06T20:53:13.429Z,13.55
2023-03-06T20:55:39.954Z,13.54
2023-03-06T20:58:06.438Z,13.52
2023-03-06T21:00:32.874Z,13.54
2023-03-06T21:02:59.853Z,13.53
2023-03-06T21:05:26.312Z,13.53
2023-03-06T21:07:52.714Z,13.51
2023-03-06T21:10:18.987Z,13.51
2023-03-06T21:12:45.797Z,13.49
2023-03-06T21:15:12.128Z,13.50
2023-03-06T21:17:39.133Z,13.49
2023-03-06T21:20:05.512Z,13.51
2023-03-06T21:22:31.968Z,13.50
2023-03-06T21:24:58.913Z,13.49
2023-03-06T21:27:25.314Z,13.46
2023-03-06T21:29:51.801Z,13.46
2023-03-06T21:32:18.202Z,13.45
2023-03-06T21:34:44.612Z,13.48
2023-03-06T21:37:11.332Z,13.45
2023-03-06T21:39:37.913Z,13.46
2023-03-06T21:42:04.336Z,13.43
2023-03-06T21:44:30.744Z,13.44
2023-03-06T21:46:57.082Z,13.42
2023-03-06T21:49:23.687Z,13.42
2023-03-06T21:51:50.154Z,13.42
2023-03-06T21:54:16.519Z,13.41
2023-03-06T21:56:42.909Z,13.41
2023-03-06T21:59:09.253Z,13.42
2023-03-06T22:01:35.610Z,13.39
2023-03-06T22:04:02.066Z,13.41
2023-03-06T22:06:29.102Z,13.39
2023-03-06T22:08:55.484Z,13.40
2023-03-06T22:11:22.264Z,13.38
2023-03-06T22:13:48.771Z,13.41
2023-03-06T22:16:15.367Z,13.37
2023-03-06T22:18:41.907Z,13.38
2023-03-06T22:21:08.221Z,13.35
2023-03-06T22:23:35.346Z,13.35
2023-03-06T22:26:01.875Z,13.36
2023-03-06T22:28:28.855Z,13.36
2023-03-06T22:30:55.385Z,13.35
2023-03-06T22:33:21.804Z,13.35
2023-03-06T22:35:48.151Z,13.34
2023-03-06T22:38:14.493Z,13.34
2023-03-06T22:40:40.901Z,13.34
2023-03-06T22:43:07.769Z,13.31
2023-03-06T22:45:34.755Z,13.34
2023-03-06T22:48:10.432Z,13.32
2023-03-06T22:50:37.259Z,13.33
2023-03-06T22:53:03.674Z,13.31
2023-03-06T22:55:29.974Z,13.29
2023-03-06T22:57:56.706Z,13.30
2023-03-06T23:00:23.244Z,13.29
2023-03-06T23:02:50.340Z,13.27
2023-03-06T23:05:17.425Z,13.29
2023-03-06T23:07:44.108Z,13.29
2023-03-06T23:10:11.147Z,13.27
2023-03-06T23:12:37.526Z,13.26
2023-03-06T23:15:04.114Z,13.28
2023-03-06T23:17:30.550Z,13.26
2023-03-06T23:19:57.735Z,13.25
2023-03-06T23:22:24.195Z,13.26
2023-03-06T23:24:50.789Z,13.25
2023-03-06T23:27:17.108Z,13.24
2023-03-06T23:29:43.444Z,13.26
2023-03-06T23:32:09.823Z,13.25
2023-03-06T23:34:36.312Z,13.24
2023-03-06T23:37:02.669Z,13.23
2023-03-06T23:39:29.346Z,13.24
2023-03-06T23:41:55.597Z,13.25
2023-03-06T23:44:22.030Z,13.22
2023-03-06T23:46:48.501Z,13.23
2023-03-06T23:49:14.883Z,13.22
2023-03-06T23:51:41.267Z,13.22
2023-03-06T23:54:07.641Z,13.20
2023-03-06T23:56:34.031Z,13.21
2023-03-06T23:59:00.489Z,13.20
